createdAt,value
2019-05-16T00:00:08.294Z,92
2019-05-16T00:01:09.174Z,92
2019-05-16T00:02:08.198Z,92
2019-05-16T00:03:07.955Z,92
2019-05-16T00:04:08.471Z,92
2019-05-16T00:05:08.288Z,92
2019-05-16T00:06:08.496Z,92
2019-05-16T00:07:08.016Z,93
2019-05-16T00:08:10.892Z,93
2019-05-16T00:09:07.936Z,92
2019-05-16T00:10:08.337Z,93
2019-05-16T00:11:08.545Z,92
2019-05-16T00:12:08.703Z,92
2019-05-16T00:13:08.433Z,93
2019-05-16T00:14:08.312Z,92
2019-05-16T00:15:08.957Z,92
2019-05-16T00:16:07.941Z,91
2019-05-16T00:17:08.257Z,91
2019-05-16T00:18:08.685Z,91
2019-05-16T00:19:08.992Z,91
2019-05-16T00:20:09.179Z,92
2019-05-16T00:21:08.682Z,91
2019-05-16T00:22:08.671Z,92
2019-05-16T00:23:07.889Z,91
2019-05-16T00:24:08.195Z,91
2019-05-16T00:25:08.549Z,91
2019-05-16T00:26:07.806Z,91
2019-05-16T00:27:08.277Z,91
2019-05-16T00:29:07.973Z,91
2019-05-16T00:30:08.810Z,91
2019-05-16T00:31:08.571Z,92
2019-05-16T00:32:08.540Z,91
2019-05-16T00:33:08.214Z,91
2019-05-16T00:34:09.538Z,91
2019-05-16T00:35:09.117Z,92
2019-05-16T00:36:09.105Z,92
2019-05-16T00:37:08.613Z,92
2019-05-16T00:38:08.739Z,92
2019-05-16T00:39:08.340Z,92
2019-05-16T00:40:08.279Z,91
2019-05-16T00:41:08.537Z,92
2019-05-16T00:42:08.750Z,92
2019-05-16T00:43:08.227Z,92
2019-05-16T00:45:09.088Z,92
2019-05-16T00:46:08.347Z,92
2019-05-16T00:47:08.626Z,92
2019-05-16T00:48:08.935Z,92
2019-05-16T00:49:09.255Z,92
2019-05-16T00:50:08.800Z,92
2019-05-16T00:51:08.300Z,92
2019-05-16T00:52:08.340Z,93
2019-05-16T00:53:09.089Z,92
2019-05-16T00:54:08.430Z,92
2019-05-16T00:55:08.594Z,92
2019-05-16T00:56:08.483Z,92
2019-05-16T00:57:08.722Z,92
2019-05-16T00:58:08.870Z,92
2019-05-16T00:59:08.609Z,92
2019-05-16T01:00:08.659Z,92
2019-05-16T01:01:08.765Z,92
2019-05-16T01:03:08.763Z,92
2019-05-16T01:04:08.762Z,92
2019-05-16T01:05:08.888Z,92
2019-05-16T01:06:16.451Z,92
2019-05-16T01:07:08.849Z,92
2019-05-16T01:08:08.922Z,92
2019-05-16T01:09:08.948Z,92
2019-05-16T01:10:09.266Z,92
2019-05-16T01:11:08.980Z,92
2019-05-16T01:12:08.994Z,92
2019-05-16T01:13:09.054Z,92
2019-05-16T01:14:09.062Z,92
2019-05-16T01:15:09.066Z,92
2019-05-16T01:16:09.088Z,92
2019-05-16T01:17:09.114Z,93
2019-05-16T01:18:09.172Z,93
2019-05-16T01:19:09.158Z,93
2019-05-16T01:20:09.177Z,92
2019-05-16T01:21:09.206Z,92
2019-05-16T01:22:09.222Z,93
2019-05-16T01:23:09.287Z,93
2019-05-16T01:24:09.263Z,92
2019-05-16T01:25:09.723Z,92
2019-05-16T01:26:09.305Z,92
2019-05-16T01:27:09.347Z,93
2019-05-16T01:28:09.371Z,93
2019-05-16T01:29:11.706Z,93
2019-05-16T01:30:09.429Z,93
2019-05-16T01:31:09.373Z,93
2019-05-16T01:32:09.399Z,92
2019-05-16T01:33:09.639Z,93
2019-05-16T01:34:09.449Z,93
2019-05-16T01:35:09.419Z,93
2019-05-16T01:36:09.436Z,93
2019-05-16T01:37:09.448Z,93
2019-05-16T01:38:09.445Z,93
2019-05-16T01:39:09.473Z,93
2019-05-16T01:40:09.465Z,93
2019-05-16T01:41:09.481Z,92
2019-05-16T01:42:09.486Z,93
2019-05-16T01:43:09.499Z,93
2019-05-16T01:44:09.537Z,93
2019-05-16T01:45:09.508Z,93
2019-05-16T01:46:09.516Z,93
2019-05-16T01:47:09.525Z,93
2019-05-16T01:48:09.614Z,93
2019-05-16T01:49:09.596Z,93
2019-05-16T01:50:09.560Z,93
2019-05-16T01:51:09.567Z,93
2019-05-16T01:52:09.595Z,93
2019-05-16T01:53:09.560Z,93
2019-05-16T01:54:09.598Z,93
2019-05-16T01:55:09.610Z,93
2019-05-16T01:56:09.577Z,93
2019-05-16T01:57:09.615Z,93
2019-05-16T01:58:09.673Z,93
2019-05-16T01:59:09.718Z,93
2019-05-16T02:00:09.732Z,93
2019-05-16T02:01:12.864Z,93
2019-05-16T02:02:09.802Z,93
2019-05-16T02:03:09.881Z,93
2019-05-16T02:04:12.152Z,93
2019-05-16T02:05:09.978Z,93
2019-05-16T02:06:10.027Z,93
2019-05-16T02:07:10.046Z,93
2019-05-16T02:08:10.128Z,93
2019-05-16T02:09:11.418Z,92
2019-05-16T02:10:10.239Z,92
2019-05-16T02:11:10.290Z,92
2019-05-16T02:12:11.338Z,92
2019-05-16T02:13:10.321Z,92
2019-05-16T02:14:10.424Z,92
2019-05-16T02:15:10.446Z,92
2019-05-16T02:16:10.523Z,92
2019-05-16T02:17:11.178Z,92
2019-05-16T02:18:10.596Z,92
2019-05-16T02:19:10.658Z,92
2019-05-16T02:20:10.690Z,92
2019-05-16T02:21:10.728Z,92
2019-05-16T02:22:10.734Z,92
2019-05-16T02:23:10.825Z,92
2019-05-16T02:24:10.856Z,92
2019-05-16T02:25:10.807Z,92
2019-05-16T02:26:10.872Z,92
2019-05-16T02:27:10.935Z,92
2019-05-16T02:28:11.004Z,92
2019-05-16T02:29:13.621Z,92
2019-05-16T02:30:12.334Z,91
2019-05-16T02:31:11.864Z,91
2019-05-16T02:32:11.709Z,91
2019-05-16T02:33:11.658Z,91
2019-05-16T02:34:11.996Z,91
2019-05-16T02:35:12.091Z,91
2019-05-16T02:36:11.278Z,91
2019-05-16T02:37:23.347Z,91
2019-05-16T02:38:11.583Z,91
2019-05-16T02:39:11.553Z,91
2019-05-16T02:40:12.182Z,91
2019-05-16T02:41:11.519Z,91
2019-05-16T02:42:12.199Z,91
2019-05-16T02:43:12.423Z,91
2019-05-16T02:44:12.181Z,92
2019-05-16T02:45:11.627Z,92
2019-05-16T02:46:12.169Z,92
2019-05-16T02:47:11.720Z,92
2019-05-16T02:48:11.738Z,92
2019-05-16T02:49:11.939Z,92
2019-05-16T02:50:12.654Z,93
2019-05-16T02:51:11.927Z,93
2019-05-16T02:52:11.928Z,93
2019-05-16T02:53:12.744Z,92
2019-05-16T02:54:12.015Z,92
2019-05-16T02:55:12.212Z,92
2019-05-16T02:56:12.481Z,92
2019-05-16T02:57:12.035Z,92
2019-05-16T02:58:12.072Z,92
2019-05-16T02:59:12.200Z,92
2019-05-16T03:00:12.681Z,92
2019-05-16T03:01:12.152Z,92
2019-05-16T03:02:12.186Z,92
2019-05-16T03:03:12.318Z,92
2019-05-16T03:04:12.302Z,93
2019-05-16T03:05:12.812Z,93
2019-05-16T03:06:12.313Z,93
2019-05-16T03:07:30.207Z,93
2019-05-16T03:08:14.862Z,93
2019-05-16T03:09:12.481Z,93
2019-05-16T03:10:12.474Z,93
2019-05-16T03:11:12.502Z,94
2019-05-16T03:12:12.546Z,93
2019-05-16T03:13:12.563Z,93
2019-05-16T03:14:12.622Z,94
2019-05-16T03:15:12.721Z,94
2019-05-16T03:16:12.647Z,94
2019-05-16T03:17:12.712Z,94
2019-05-16T03:18:12.715Z,94
2019-05-16T03:19:12.786Z,94
2019-05-16T03:20:12.757Z,94
2019-05-16T03:21:12.809Z,94
2019-05-16T03:22:13.157Z,94
2019-05-16T03:23:12.841Z,94
2019-05-16T03:24:12.896Z,94
2019-05-16T03:25:12.892Z,93
2019-05-16T03:26:12.903Z,93
2019-05-16T03:27:12.928Z,93
2019-05-16T03:28:13.009Z,93
2019-05-16T03:29:12.974Z,92
2019-05-16T03:30:16.070Z,92
2019-05-16T03:31:14.710Z,92
2019-05-16T03:32:14.221Z,92
2019-05-16T03:33:16.764Z,92
2019-05-16T03:34:15.798Z,92
2019-05-16T03:35:15.113Z,92
2019-05-16T03:36:15.057Z,92
2019-05-16T03:37:14.485Z,93
2019-05-16T03:38:13.066Z,92
2019-05-16T03:39:13.061Z,92
2019-05-16T03:40:13.076Z,92
2019-05-16T03:41:13.093Z,92
2019-05-16T03:42:13.126Z,93
2019-05-16T03:43:13.100Z,93
2019-05-16T03:44:13.102Z,93
2019-05-16T03:45:13.106Z,93
2019-05-16T03:46:13.125Z,93
2019-05-16T03:47:13.170Z,93
2019-05-16T03:48:13.174Z,93
2019-05-16T03:49:13.149Z,93
2019-05-16T03:50:13.165Z,93
2019-05-16T03:51:13.152Z,93
2019-05-16T03:52:13.193Z,93
2019-05-16T03:53:13.164Z,93
2019-05-16T03:54:15.450Z,93
2019-05-16T03:55:13.286Z,93
2019-05-16T03:56:13.363Z,93
2019-05-16T03:57:13.416Z,93
2019-05-16T03:58:13.420Z,93
2019-05-16T03:59:13.493Z,93
2019-05-16T04:00:16.039Z,93
2019-05-16T04:01:13.620Z,93
2019-05-16T04:02:13.723Z,93
2019-05-16T04:03:13.745Z,93
2019-05-16T04:04:13.810Z,93
2019-05-16T04:05:13.809Z,92
2019-05-16T04:06:13.847Z,92
2019-05-16T04:07:13.928Z,92
2019-05-16T04:08:19.169Z,92
2019-05-16T04:09:14.972Z,92
2019-05-16T04:10:13.935Z,93
2019-05-16T04:11:13.989Z,93
2019-05-16T04:12:14.051Z,92
2019-05-16T04:13:14.049Z,92
2019-05-16T04:14:14.053Z,92
2019-05-16T04:15:14.087Z,92
2019-05-16T04:16:14.105Z,92
2019-05-16T04:17:14.150Z,92
2019-05-16T04:18:14.188Z,92
2019-05-16T04:19:14.203Z,93
2019-05-16T04:20:14.264Z,93
2019-05-16T04:21:17.397Z,93
2019-05-16T04:22:14.386Z,93
2019-05-16T04:23:14.396Z,93
2019-05-16T04:24:14.430Z,93
2019-05-16T04:25:14.455Z,93
2019-05-16T04:26:14.491Z,93
2019-05-16T04:27:14.530Z,93
2019-05-16T04:28:14.610Z,93
2019-05-16T04:29:14.658Z,93
2019-05-16T04:30:14.672Z,93
2019-05-16T04:31:14.716Z,93
2019-05-16T04:32:17.230Z,93
2019-05-16T04:33:14.738Z,93
2019-05-16T04:34:14.734Z,93
2019-05-16T04:35:14.799Z,92
2019-05-16T04:36:14.807Z,92
2019-05-16T04:37:14.872Z,92
2019-05-16T04:38:30.137Z,92
2019-05-16T04:39:14.987Z,92
2019-05-16T04:40:14.996Z,92
2019-05-16T04:41:15.052Z,92
2019-05-16T04:42:15.050Z,92
2019-05-16T04:43:15.101Z,92
2019-05-16T04:44:15.123Z,92
2019-05-16T04:45:15.206Z,93
2019-05-16T04:46:15.168Z,93
2019-05-16T04:47:15.208Z,93
2019-05-16T04:48:15.271Z,92
2019-05-16T04:49:15.266Z,92
2019-05-16T04:50:15.280Z,92
2019-05-16T04:51:15.489Z,92
2019-05-16T04:52:15.349Z,92
2019-05-16T04:53:15.393Z,92
2019-05-16T04:54:15.386Z,92
2019-05-16T04:55:15.416Z,92
2019-05-16T04:56:15.398Z,92
2019-05-16T04:57:15.442Z,92
2019-05-16T04:58:15.515Z,92
2019-05-16T04:59:16.775Z,92
2019-05-16T05:00:15.594Z,92
2019-05-16T05:01:15.588Z,92
2019-05-16T05:02:15.635Z,92
2019-05-16T05:03:15.613Z,92
2019-05-16T05:04:15.810Z,92
2019-05-16T05:05:15.700Z,92
2019-05-16T05:06:15.697Z,93
2019-05-16T05:07:15.749Z,92
2019-05-16T05:08:15.761Z,92
2019-05-16T05:09:15.864Z,93
2019-05-16T05:10:15.822Z,92
2019-05-16T05:11:15.886Z,93
2019-05-16T05:12:15.861Z,93
2019-05-16T05:13:15.896Z,93
2019-05-16T05:14:15.938Z,93
2019-05-16T05:15:15.915Z,93
2019-05-16T05:16:15.940Z,93
2019-05-16T05:17:15.999Z,93
2019-05-16T05:18:16.023Z,93
2019-05-16T05:19:16.074Z,93
2019-05-16T05:20:16.029Z,93
2019-05-16T05:21:16.039Z,93
2019-05-16T05:22:19.861Z,93
2019-05-16T05:23:16.080Z,93
2019-05-16T05:24:16.163Z,93
2019-05-16T05:25:16.135Z,93
2019-05-16T05:26:16.137Z,93
2019-05-16T05:27:16.136Z,93
2019-05-16T05:28:16.124Z,93
2019-05-16T05:29:16.173Z,93
2019-05-16T05:30:16.157Z,93
2019-05-16T05:31:16.175Z,93
2019-05-16T05:32:16.184Z,93
2019-05-16T05:33:16.188Z,93
2019-05-16T05:34:16.323Z,93
2019-05-16T05:35:16.222Z,93
2019-05-16T05:36:16.193Z,93
2019-05-16T05:37:16.213Z,93
2019-05-16T05:38:16.234Z,93
2019-05-16T05:39:23.455Z,93
2019-05-16T05:40:16.315Z,93
2019-05-16T05:41:16.226Z,93
2019-05-16T05:42:16.273Z,92
2019-05-16T05:43:16.228Z,92
2019-05-16T05:44:16.233Z,93
2019-05-16T05:45:16.271Z,93
2019-05-16T05:46:16.318Z,92
2019-05-16T05:47:16.332Z,93
2019-05-16T05:48:16.340Z,93
2019-05-16T05:49:16.357Z,93
2019-05-16T05:50:16.476Z,93
2019-05-16T05:51:16.493Z,94
2019-05-16T05:52:16.534Z,94
2019-05-16T05:53:16.566Z,93
2019-05-16T05:54:16.657Z,93
2019-05-16T05:55:16.751Z,93
2019-05-16T05:56:16.761Z,92
2019-05-16T05:57:16.813Z,92
2019-05-16T05:58:16.887Z,92
2019-05-16T05:59:16.922Z,92
2019-05-16T06:00:16.977Z,92
2019-05-16T06:01:16.972Z,92
2019-05-16T06:02:17.043Z,92
2019-05-16T06:03:17.052Z,92
2019-05-16T06:04:17.109Z,92
2019-05-16T06:05:17.197Z,92
2019-05-16T06:06:17.200Z,92
2019-05-16T06:07:17.285Z,92
2019-05-16T06:08:17.312Z,92
2019-05-16T06:09:26.048Z,92
2019-05-16T06:10:19.751Z,92
2019-05-16T06:11:17.567Z,92
2019-05-16T06:12:17.617Z,92
2019-05-16T06:13:20.189Z,92
2019-05-16T06:14:17.535Z,92
2019-05-16T06:15:20.234Z,92
2019-05-16T06:16:20.127Z,92
2019-05-16T06:17:19.909Z,93
2019-05-16T06:18:19.792Z,93
2019-05-16T06:19:17.783Z,92
2019-05-16T06:20:20.100Z,92
2019-05-16T06:21:20.061Z,93
2019-05-16T06:22:17.810Z,92
2019-05-16T06:23:20.244Z,92
2019-05-16T06:24:20.009Z,92
2019-05-16T06:25:22.145Z,93
2019-05-16T06:26:20.129Z,92
2019-05-16T06:27:20.658Z,92
2019-05-16T06:28:20.508Z,92
2019-05-16T06:29:20.186Z,92
2019-05-16T06:30:21.267Z,92
2019-05-16T06:31:21.754Z,92
2019-05-16T06:32:19.776Z,92
2019-05-16T06:33:19.911Z,92
2019-05-16T06:34:20.730Z,92
2019-05-16T06:35:20.248Z,92
2019-05-16T06:36:20.355Z,92
2019-05-16T06:37:20.470Z,92
2019-05-16T06:38:20.815Z,92
2019-05-16T06:39:19.872Z,93
2019-05-16T06:40:20.246Z,92
2019-05-16T06:41:19.863Z,92
2019-05-16T06:42:20.574Z,92
2019-05-16T06:43:20.411Z,93
2019-05-16T06:44:20.236Z,93
2019-05-16T06:45:20.453Z,93
2019-05-16T06:46:20.074Z,93
2019-05-16T06:47:20.487Z,93
2019-05-16T06:48:21.067Z,93
2019-05-16T06:49:19.668Z,93
2019-05-16T06:50:20.784Z,93
2019-05-16T06:51:19.991Z,93
2019-05-16T06:52:19.686Z,93
2019-05-16T06:53:20.881Z,93
2019-05-16T06:54:20.708Z,92
2019-05-16T06:55:20.436Z,92
2019-05-16T06:56:19.959Z,93
2019-05-16T06:57:20.581Z,93
2019-05-16T06:58:22.353Z,93
2019-05-16T06:59:20.249Z,93
2019-05-16T07:00:20.905Z,93
2019-05-16T07:01:20.801Z,92
2019-05-16T07:02:27.498Z,92
2019-05-16T07:03:20.363Z,92
2019-05-16T07:04:20.021Z,93
2019-05-16T07:05:20.760Z,93
2019-05-16T07:06:38.013Z,93
2019-05-16T07:07:20.454Z,93
2019-05-16T07:08:20.384Z,93
2019-05-16T07:09:20.605Z,93
2019-05-16T07:10:20.317Z,92
2019-05-16T07:11:20.101Z,92
2019-05-16T07:12:20.228Z,92
2019-05-16T07:13:19.735Z,92
2019-05-16T07:14:22.720Z,91
2019-05-16T07:15:20.599Z,91
2019-05-16T07:16:20.554Z,91
2019-05-16T07:17:20.162Z,91
2019-05-16T07:18:20.724Z,92
2019-05-16T07:19:20.729Z,91
2019-05-16T07:20:20.929Z,91
2019-05-16T07:21:20.133Z,91
2019-05-16T07:22:20.460Z,91
2019-05-16T07:23:20.888Z,91
2019-05-16T07:24:19.902Z,91
2019-05-16T07:25:20.761Z,91
2019-05-16T07:26:20.479Z,91
2019-05-16T07:27:21.769Z,91
2019-05-16T07:28:20.793Z,91
2019-05-16T07:29:20.199Z,91
2019-05-16T07:30:19.985Z,91
2019-05-16T07:31:22.259Z,91
2019-05-16T07:32:19.898Z,91
2019-05-16T07:33:20.998Z,91
2019-05-16T07:34:20.593Z,91
2019-05-16T07:35:20.405Z,91
2019-05-16T07:36:20.829Z,91
2019-05-16T07:37:20.149Z,91
2019-05-16T07:38:20.221Z,92
2019-05-16T07:39:19.977Z,92
2019-05-16T07:40:26.395Z,92
2019-05-16T07:41:20.418Z,92
2019-05-16T07:42:20.115Z,92
2019-05-16T07:43:20.379Z,92
2019-05-16T07:44:20.809Z,92
2019-05-16T07:45:20.467Z,91
2019-05-16T07:46:20.769Z,92
2019-05-16T07:47:20.406Z,92
2019-05-16T07:48:21.342Z,92
2019-05-16T07:49:20.250Z,91
2019-05-16T07:50:20.472Z,91
2019-05-16T07:51:20.581Z,91
2019-05-16T07:52:22.556Z,91
2019-05-16T07:53:21.344Z,91
2019-05-16T07:54:21.303Z,91
2019-05-16T07:55:21.003Z,91
2019-05-16T07:56:20.699Z,91
2019-05-16T07:57:22.883Z,91
2019-05-16T07:58:22.311Z,91
2019-05-16T07:59:20.653Z,92
2019-05-16T08:00:21.762Z,91
2019-05-16T08:01:20.772Z,92
2019-05-16T08:02:21.175Z,92
2019-05-16T08:03:20.825Z,91
2019-05-16T08:04:20.872Z,91
2019-05-16T08:05:21.363Z,91
2019-05-16T08:06:20.965Z,91
2019-05-16T08:07:20.966Z,91
2019-05-16T08:08:23.979Z,90
2019-05-16T08:09:21.303Z,90
2019-05-16T08:10:36.306Z,89
2019-05-16T08:11:23.575Z,89
2019-05-16T08:12:25.957Z,89
2019-05-16T08:13:21.389Z,89
2019-05-16T08:14:21.529Z,89
2019-05-16T08:15:21.605Z,89
2019-05-16T08:16:21.412Z,89
2019-05-16T08:17:21.858Z,90
2019-05-16T08:18:21.742Z,90
2019-05-16T08:19:25.114Z,91
2019-05-16T08:20:22.077Z,91
2019-05-16T08:21:21.598Z,91
2019-05-16T08:23:22.506Z,91
2019-05-16T08:24:21.693Z,90
2019-05-16T08:25:21.740Z,90
2019-05-16T08:26:22.282Z,90
2019-05-16T08:27:21.869Z,89
2019-05-16T08:28:22.107Z,89
2019-05-16T08:29:22.150Z,90
2019-05-16T08:30:21.967Z,90
2019-05-16T08:31:22.033Z,90
2019-05-16T08:32:22.895Z,90
2019-05-16T08:33:22.316Z,90
2019-05-16T08:34:22.074Z,90
2019-05-16T08:35:22.066Z,90
2019-05-16T08:36:22.110Z,91
2019-05-16T08:38:22.129Z,91
2019-05-16T08:39:22.066Z,91
2019-05-16T08:40:22.087Z,90
2019-05-16T08:41:22.744Z,90
2019-05-16T08:42:22.133Z,89
2019-05-16T08:43:22.648Z,89
2019-05-16T08:44:22.200Z,89
2019-05-16T08:45:22.384Z,89
2019-05-16T08:46:22.299Z,89
2019-05-16T08:47:22.276Z,89
2019-05-16T08:48:23.641Z,89
2019-05-16T08:49:22.434Z,89
2019-05-16T08:50:06.370Z,92
2019-05-16T08:50:22.342Z,89
2019-05-16T08:51:22.536Z,89
2019-05-16T08:52:22.662Z,89
2019-05-16T08:53:22.423Z,88
2019-05-16T08:54:22.464Z,87
2019-05-16T08:55:22.817Z,88
2019-05-16T08:56:22.697Z,88
2019-05-16T08:57:27.689Z,89
2019-05-16T08:58:23.066Z,88
2019-05-16T08:59:22.537Z,87
2019-05-16T09:00:22.585Z,87
2019-05-16T09:01:22.613Z,86
2019-05-16T09:03:22.796Z,83
2019-05-16T09:04:25.135Z,83
2019-05-16T09:05:23.009Z,82
2019-05-16T09:06:23.193Z,81
2019-05-16T09:07:22.955Z,82
2019-05-16T09:08:22.693Z,83
2019-05-16T09:09:36.292Z,84
2019-05-16T09:10:34.041Z,91
2019-05-16T09:10:34.046Z,84
2019-05-16T09:11:31.077Z,84
2019-05-16T09:12:22.725Z,85
2019-05-16T09:13:22.717Z,86
2019-05-16T09:14:22.758Z,86
2019-05-16T09:15:22.739Z,86
2019-05-16T09:16:38.514Z,86
2019-05-16T09:17:22.762Z,86
2019-05-16T09:18:22.752Z,86
2019-05-16T09:19:22.779Z,86
2019-05-16T09:20:22.767Z,86
2019-05-16T09:21:22.813Z,87
2019-05-16T09:22:22.795Z,87
2019-05-16T09:23:22.768Z,88
2019-05-16T09:24:22.775Z,88
2019-05-16T09:25:22.781Z,87
2019-05-16T09:26:22.818Z,87
2019-05-16T09:27:22.887Z,87
2019-05-16T09:28:22.889Z,87
2019-05-16T09:29:22.983Z,87
2019-05-16T09:30:23.017Z,87
2019-05-16T09:31:23.039Z,85
2019-05-16T09:32:23.122Z,84
2019-05-16T09:33:26.739Z,83
2019-05-16T09:34:23.187Z,83
2019-05-16T09:35:23.187Z,83
2019-05-16T09:36:23.259Z,81
2019-05-16T09:37:23.331Z,82
2019-05-16T09:38:23.822Z,83
2019-05-16T09:39:23.373Z,83
2019-05-16T09:40:23.417Z,83
2019-05-16T09:41:23.399Z,84
2019-05-16T09:42:23.449Z,83
2019-05-16T09:43:23.474Z,82
2019-05-16T09:44:23.494Z,82
2019-05-16T09:45:23.509Z,83
2019-05-16T09:46:23.597Z,83
2019-05-16T09:47:23.704Z,82
2019-05-16T09:48:23.644Z,82
2019-05-16T09:49:24.817Z,82
2019-05-16T09:50:23.790Z,81
2019-05-16T09:51:23.790Z,82
2019-05-16T09:52:23.880Z,82
2019-05-16T09:53:23.900Z,82
2019-05-16T09:54:23.991Z,83
2019-05-16T09:55:24.017Z,84
2019-05-16T09:56:24.079Z,85
2019-05-16T09:57:24.145Z,85
2019-05-16T09:58:24.151Z,86
2019-05-16T09:59:26.187Z,86
2019-05-16T10:00:26.688Z,86
2019-05-16T10:01:24.248Z,87
2019-05-16T10:02:27.176Z,87
2019-05-16T10:03:26.860Z,84
2019-05-16T10:04:26.546Z,83
2019-05-16T10:05:26.599Z,84
2019-05-16T10:06:24.498Z,84
2019-05-16T10:07:27.975Z,85
2019-05-16T10:08:26.696Z,84
2019-05-16T10:09:38.372Z,85
2019-05-16T10:10:26.243Z,84
2019-05-16T10:11:30.174Z,84
2019-05-16T10:12:26.276Z,83
2019-05-16T10:13:27.261Z,82
2019-05-16T10:14:26.825Z,80
2019-05-16T10:15:26.937Z,79
2019-05-16T10:16:27.345Z,79
2019-05-16T10:17:27.180Z,78
2019-05-16T10:18:27.469Z,78
2019-05-16T10:19:27.352Z,79
2019-05-16T10:20:27.176Z,80
2019-05-16T10:21:27.111Z,81
2019-05-16T10:22:27.212Z,80
2019-05-16T10:23:25.189Z,80
2019-05-16T10:24:26.816Z,80
2019-05-16T10:25:27.604Z,80
2019-05-16T10:26:27.640Z,78
2019-05-16T10:27:26.474Z,77
2019-05-16T10:28:27.520Z,76
2019-05-16T10:29:27.309Z,78
2019-05-16T10:30:26.893Z,79
2019-05-16T10:31:38.437Z,79
2019-05-16T10:32:27.325Z,77
2019-05-16T10:33:27.439Z,77
2019-05-16T10:34:26.559Z,78
2019-05-16T10:35:28.986Z,76
2019-05-16T10:36:27.897Z,76
2019-05-16T10:37:26.830Z,74
2019-05-16T10:38:28.340Z,74
2019-05-16T10:39:26.735Z,77
2019-05-16T10:40:27.369Z,78
2019-05-16T10:41:25.697Z,78
2019-05-16T10:42:28.862Z,78
2019-05-16T10:43:26.430Z,78
2019-05-16T10:44:28.022Z,78
2019-05-16T10:45:27.269Z,77
2019-05-16T10:46:26.894Z,74
2019-05-16T10:47:28.675Z,75
2019-05-16T10:48:26.936Z,77
2019-05-16T10:49:36.651Z,78
2019-05-16T10:50:27.564Z,76
2019-05-16T10:51:26.888Z,77
2019-05-16T10:52:26.867Z,77
2019-05-16T10:53:52.119Z,76
2019-05-16T10:54:27.523Z,75
2019-05-16T10:55:27.728Z,77
2019-05-16T10:56:25.972Z,77
2019-05-16T10:57:29.116Z,76
2019-05-16T10:58:36.290Z,76
2019-05-16T10:59:53.978Z,77
2019-05-16T11:00:46.768Z,78
2019-05-16T11:01:27.675Z,78
2019-05-16T11:02:27.506Z,79
2019-05-16T11:03:27.568Z,79
2019-05-16T11:04:33.595Z,79
2019-05-16T11:05:31.011Z,77
2019-05-16T11:06:29.105Z,76
2019-05-16T11:07:29.245Z,77
2019-05-16T11:08:26.138Z,78
2019-05-16T11:09:26.124Z,79
2019-05-16T11:10:26.777Z,80
2019-05-16T11:11:27.262Z,80
2019-05-16T11:12:44.867Z,78
2019-05-16T11:13:27.937Z,76
2019-05-16T11:14:28.073Z,76
2019-05-16T11:15:27.743Z,78
2019-05-16T11:16:27.396Z,78
2019-05-16T11:17:27.797Z,77
2019-05-16T11:18:27.108Z,75
2019-05-16T11:19:28.163Z,76
2019-05-16T11:20:26.907Z,75
2019-05-16T11:21:26.863Z,75
2019-05-16T11:22:29.271Z,74
2019-05-16T11:23:28.125Z,74
2019-05-16T11:24:28.745Z,74
2019-05-16T11:25:31.706Z,74
2019-05-16T11:26:27.516Z,77
2019-05-16T11:27:26.318Z,78
2019-05-16T11:28:26.369Z,78
2019-05-16T11:29:26.328Z,79
2019-05-16T11:30:27.962Z,76
2019-05-16T11:31:26.760Z,75
2019-05-16T11:32:27.042Z,74
2019-05-16T11:33:28.077Z,74
2019-05-16T11:34:26.770Z,76
2019-05-16T11:35:27.323Z,79
2019-05-16T11:36:26.908Z,78
2019-05-16T11:37:27.882Z,77
2019-05-16T11:38:26.733Z,77
2019-05-16T11:39:26.797Z,78
2019-05-16T11:40:28.529Z,78
2019-05-16T11:41:27.443Z,76
2019-05-16T11:42:27.949Z,75
2019-05-16T11:43:27.814Z,75
2019-05-16T11:44:28.489Z,77
2019-05-16T11:45:27.285Z,78
2019-05-16T11:46:28.033Z,78
2019-05-16T11:47:27.312Z,79
2019-05-16T11:48:29.174Z,79
2019-05-16T11:49:29.445Z,78
2019-05-16T11:50:28.014Z,77
2019-05-16T11:51:27.432Z,77
2019-05-16T11:52:27.337Z,77
2019-05-16T11:53:28.166Z,78
2019-05-16T11:54:27.426Z,79
2019-05-16T11:55:33.239Z,79
2019-05-16T11:56:27.600Z,79
2019-05-16T11:57:27.533Z,80
2019-05-16T11:58:27.494Z,80
2019-05-16T11:59:27.562Z,78
2019-05-16T12:00:30.404Z,77
2019-05-16T12:01:27.792Z,77
2019-05-16T12:02:28.096Z,79
2019-05-16T12:03:28.288Z,80
2019-05-16T12:04:28.133Z,80
2019-05-16T12:05:27.814Z,81
2019-05-16T12:06:27.844Z,82
2019-05-16T12:07:33.213Z,83
2019-05-16T12:08:27.935Z,80
2019-05-16T12:09:33.154Z,80
2019-05-16T12:10:28.026Z,80
2019-05-16T12:11:28.081Z,81
2019-05-16T12:12:28.170Z,82
2019-05-16T12:13:32.558Z,81
2019-05-16T12:14:28.197Z,80
2019-05-16T12:15:29.264Z,78
2019-05-16T12:16:28.245Z,79
2019-05-16T12:17:28.326Z,80
2019-05-16T12:18:28.286Z,78
2019-05-16T12:19:33.645Z,79
2019-05-16T12:20:28.377Z,80
2019-05-16T12:21:28.400Z,80
2019-05-16T12:22:28.467Z,79
2019-05-16T12:23:28.472Z,79
2019-05-16T12:24:37.007Z,79
2019-05-16T12:25:28.545Z,79
2019-05-16T12:26:28.601Z,80
2019-05-16T12:27:32.151Z,79
2019-05-16T12:28:28.642Z,80
2019-05-16T12:29:30.916Z,79
2019-05-16T12:30:28.714Z,80
2019-05-16T12:31:32.311Z,81
2019-05-16T12:32:28.786Z,81
2019-05-16T12:33:28.821Z,80
2019-05-16T12:34:28.822Z,80
2019-05-16T12:35:28.854Z,80
2019-05-16T12:36:31.390Z,81
2019-05-16T12:37:28.977Z,79
2019-05-16T12:38:31.186Z,76
2019-05-16T12:39:29.007Z,74
2019-05-16T12:40:28.955Z,73
2019-05-16T12:41:28.987Z,73
2019-05-16T12:42:29.059Z,74
2019-05-16T12:43:44.533Z,75
2019-05-16T12:44:29.066Z,76
2019-05-16T12:45:29.069Z,73
2019-05-16T12:46:29.116Z,73
2019-05-16T12:47:29.155Z,71
2019-05-16T12:48:29.132Z,71
2019-05-16T12:49:29.183Z,71
2019-05-16T12:50:29.201Z,73
2019-05-16T12:51:29.251Z,75
2019-05-16T12:52:29.270Z,75
2019-05-16T12:53:31.568Z,76
2019-05-16T12:54:29.255Z,77
2019-05-16T12:55:29.277Z,77
2019-05-16T12:56:29.294Z,76
2019-05-16T12:57:30.965Z,72
2019-05-16T12:58:37.652Z,72
2019-05-16T12:59:29.309Z,73
2019-05-16T13:00:29.338Z,75
2019-05-16T13:01:33.935Z,75
2019-05-16T13:02:29.413Z,74
2019-05-16T13:03:29.386Z,74
2019-05-16T13:04:29.405Z,74
2019-05-16T13:05:29.403Z,75
2019-05-16T13:06:29.428Z,76
2019-05-16T13:07:29.441Z,74
2019-05-16T13:08:29.409Z,74
2019-05-16T13:09:29.430Z,75
2019-05-16T13:10:29.449Z,75
2019-05-16T13:11:29.438Z,76
2019-05-16T13:12:29.470Z,74
2019-05-16T13:13:29.442Z,74
2019-05-16T13:14:30.472Z,72
2019-05-16T13:15:29.462Z,71
2019-05-16T13:16:29.466Z,71
2019-05-16T13:17:29.496Z,73
2019-05-16T13:18:29.470Z,74
2019-05-16T13:19:32.746Z,73
2019-05-16T13:20:29.566Z,72
2019-05-16T13:21:29.589Z,72
2019-05-16T13:22:32.046Z,73
2019-05-16T13:23:29.687Z,75
2019-05-16T13:24:29.776Z,76
2019-05-16T13:25:29.812Z,77
2019-05-16T13:26:29.881Z,78
2019-05-16T13:27:29.949Z,77
2019-05-16T13:28:29.939Z,76
2019-05-16T13:29:29.962Z,76
2019-05-16T13:30:30.030Z,75
2019-05-16T13:31:30.070Z,75
2019-05-16T13:32:30.155Z,73
2019-05-16T13:33:30.171Z,74
2019-05-16T13:34:30.251Z,75
2019-05-16T13:35:30.287Z,76
2019-05-16T13:36:30.355Z,76
2019-05-16T13:37:30.416Z,76
2019-05-16T13:38:30.417Z,77
2019-05-16T13:39:30.496Z,78
2019-05-16T13:40:30.525Z,78
2019-05-16T13:41:33.708Z,78
2019-05-16T13:42:30.687Z,77
2019-05-16T13:43:30.669Z,77
2019-05-16T13:44:30.676Z,76
2019-05-16T13:45:30.732Z,74
2019-05-16T13:46:30.779Z,71
2019-05-16T13:47:30.795Z,71
2019-05-16T13:48:30.810Z,72
2019-05-16T13:49:30.860Z,72
2019-05-16T13:50:30.903Z,71
2019-05-16T13:51:30.971Z,71
2019-05-16T13:52:31.068Z,71
2019-05-16T13:53:31.034Z,70
2019-05-16T13:54:31.029Z,69
2019-05-16T13:55:31.088Z,70
2019-05-16T13:56:31.130Z,70
2019-05-16T13:57:31.176Z,71
2019-05-16T13:58:31.218Z,70
2019-05-16T13:59:31.272Z,69
2019-05-16T14:00:31.295Z,69
2019-05-16T14:01:31.320Z,69
2019-05-16T14:02:31.371Z,69
2019-05-16T14:03:31.411Z,69
2019-05-16T14:04:31.493Z,70
2019-05-16T14:05:31.498Z,72
2019-05-16T14:06:31.542Z,71
2019-05-16T14:07:31.562Z,72
2019-05-16T14:08:31.593Z,72
2019-05-16T14:09:31.674Z,72
2019-05-16T14:10:31.686Z,71
2019-05-16T14:11:31.729Z,71
2019-05-16T14:12:31.779Z,70
2019-05-16T14:13:31.797Z,70
2019-05-16T14:14:37.143Z,70
2019-05-16T14:15:31.855Z,70
2019-05-16T14:16:31.888Z,71
2019-05-16T14:17:31.952Z,69
2019-05-16T14:18:31.932Z,68
2019-05-16T14:19:31.937Z,69